Time,TemperatureF,DewpointF,PressureIn,WindDirection,WindDirectionDegrees,WindSpeedMPH,WindSpeedGustMPH,Humidity,HourlyPrecipIn,Conditions,Clouds,dailyrainin,SolarRadiationWatts/m^2,SoftwareType,DateUTC
2013-09-11 00:00:00,76.4,72.2,30.10,SSE,165,0.0,0.0,87,0.00,,,0.00,0,Wunderground v.1.15,2013-09-11 04:00:00,
2013-09-11 00:10:00,76.2,72.0,30.10,SSE,165,0.0,0.0,87,0.00,,,0.00,0,Wunderground v.1.15,2013-09-11 04:10:00,
2013-09-11 00:20:00,76.0,71.8,30.09,SSE,165,0.0,0.0,87,0.00,,,0.00,0,Wunderground v.1.15,2013-09-11 04:20:00,
2013-09-11 00:30:00,75.2,71.4,30.09,SSE,165,0.0,0.0,88,0.00,,,0.00,0,Wunderground v.1.15,2013-09-11 04:30:00,
2013-09-11 00:40:00,74.5,71.4,30.09,SSE,165,0.0,0.0,90,0.00,,,0.00,0,Wunderground v.1.15,2013-09-11 04:40:00,
2013-09-11 00:50:00,74.6,71.8,30.09,SSE,165,0.0,0.0,91,0.00,,,0.00,0,Wunderground v.1.15,2013-09-11 04:50:00,
2013-09-11 01:00:00,74.8,71.7,30.09,SSE,165,0.0,0.0,90,0.00,,,0.00,0,Wunderground v.1.15,2013-09-11 05:00:00,
2013-09-11 01:10:00,74.1,71.3,30.09,SSE,165,0.0,0.0,91,0.00,,,0.00,0,Wunderground v.1.15,2013-09-11 05:10:00,
2013-09-11 01:20:00,73.7,70.9,30.09,SSE,165,0.0,0.0,91,0.00,,,0.00,0,Wunderground v.1.15,2013-09-11 05:20:00,
2013-09-11 01:30:00,73.5,71.0,30.09,SSE,165,0.0,0.0,92,0.00,,,0.00,0,Wunderground v.1.15,2013-09-11 05:30:00,
2013-09-11 01:40:00,73.0,70.5,30.09,SSE,165,0.0,0.0,92,0.00,,,0.00,0,Wunderground v.1.15,2013-09-11 05:40:00,
2013-09-11 01:50:00,72.6,70.5,30.09,SSE,165,0.0,0.0,93,0.00,,,0.00,0,Wunderground v.1.15,2013-09-11 05:50:00,
2013-09-11 02:00:00,72.6,70.8,30.09,SSE,165,0.0,0.0,94,0.00,,,0.00,0,Wunderground v.1.15,2013-09-11 06:00:00,
2013-09-11 02:10:00,72.1,70.3,30.09,SSE,165,0.0,0.0,94,0.00,,,0.00,0,Wunderground v.1.15,2013-09-11 06:10:00,
2013-09-11 02:20:00,71.7,69.9,30.08,SSE,165,0.0,0.0,94,0.00,,,0.00,0,Wunderground v.1.15,2013-09-11 06:20:00,
2013-09-11 02:30:00,71.6,70.1,30.08,SSE,165,0.0,0.0,95,0.00,,,0.00,0,Wunderground v.1.15,2013-09-11 06:30:00,
2013-09-11 02:40:00,71.3,69.5,30.08,SSE,165,0.0,0.0,94,0.00,,,0.00,0,Wunderground v.1.15,2013-09-11 06:40:00,
2013-09-11 02:50:00,71.3,69.8,30.08,SSE,165,0.0,0.0,95,0.00,,,0.00,0,Wunderground v.1.15,2013-09-11 06:50:00,
2013-09-11 03:00:00,71.6,70.4,30.08,SSE,165,0.0,0.0,96,0.00,,,0.00,0,Wunderground v.1.15,2013-09-11 07:00:00,
2013-09-11 03:10:00,71.3,69.8,30.08,SSE,165,0.0,0.0,95,0.00,,,0.00,0,Wunderground v.1.15,2013-09-11 07:10:00,
2013-09-11 03:20:00,71.5,70.3,30.07,SSE,165,0.0,0.0,96,0.00,,,0.00,0,Wunderground v.1.15,2013-09-11 07:20:00,
2013-09-11 03:30:00,72.0,70.5,30.07,SSE,165,0.0,0.0,95,0.00,,,0.00,0,Wunderground v.1.15,2013-09-11 07:30:00,
2013-09-11 03:40:00,72.2,71.0,30.07,SSE,165,0.0,0.0,96,0.00,,,0.00,0,Wunderground v.1.15,2013-09-11 07:40:00,
2013-09-11 03:50:00,72.0,70.5,30.07,SSE,165,0.0,0.0,95,0.00,,,0.00,0,Wunderground v.1.15,2013-09-11 07:50:00,
2013-09-11 04:00:00,72.0,70.5,30.07,SSE,165,0.0,0.0,95,0.00,,,0.00,0,Wunderground v.1.15,2013-09-11 08:00:00,
2013-09-11 04:10:00,71.4,69.9,30.07,SSE,165,0.0,0.0,95,0.00,,,0.00,0,Wunderground v.1.15,2013-09-11 08:10:00,
2013-09-11 04:20:00,71.3,69.8,30.07,SSE,165,0.0,0.0,95,0.00,,,0.00,0,Wunderground v.1.15,2013-09-11 08:20:00,
2013-09-11 04:30:00,71.3,69.8,30.07,SSE,165,0.0,0.0,95,0.00,,,0.00,0,Wunderground v.1.15,2013-09-11 08:30:00,
2013-09-11 04:40:00,71.0,69.5,30.07,SSE,165,0.0,0.0,95,0.00,,,0.00,0,Wunderground v.1.15,2013-09-11 08:40:00,
2013-09-11 04:50:00,71.6,70.4,30.07,SSE,165,0.0,0.0,96,0.00,,,0.00,0,Wunderground v.1.15,2013-09-11 08:50:00,
2013-09-11 05:00:00,72.0,70.8,30.07,SSE,165,0.0,0.0,96,0.00,,,0.00,0,Wunderground v.1.15,2013-09-11 09:00:00,
2013-09-11 05:10:00,72.3,70.8,30.07,SSE,165,0.0,0.0,95,0.00,,,0.00,0,Wunderground v.1.15,2013-09-11 09:10:00,
2013-09-11 05:20:00,72.5,71.0,30.07,SSE,165,0.0,0.0,95,0.00,,,0.00,0,Wunderground v.1.15,2013-09-11 09:20:00,
2013-09-11 05:30:00,72.5,71.0,30.07,SSE,165,0.0,0.0,95,0.00,,,0.00,0,Wunderground v.1.15,2013-09-11 09:30:00,
2013-09-11 05:40:00,72.2,70.4,30.08,SSE,165,0.0,0.0,94,0.00,,,0.00,0,Wunderground v.1.15,2013-09-11 09:40:00,
2013-09-11 05:50:00,71.9,70.1,30.08,SSE,165,0.0,0.0,94,0.00,,,0.00,0,Wunderground v.1.15,2013-09-11 09:50:00,
2013-09-11 06:00:00,71.5,69.7,30.08,SSE,165,0.0,0.0,94,0.00,,,0.00,0,Wunderground v.1.15,2013-09-11 10:00:00,
2013-09-11 06:10:00,71.3,69.8,30.08,SSE,165,0.0,0.0,95,0.00,,,0.00,0,Wunderground v.1.15,2013-09-11 10:10:00,
2013-09-11 06:20:00,71.2,69.7,30.09,SSE,165,0.0,0.0,95,0.00,,,0.00,0,Wunderground v.1.15,2013-09-11 10:20:00,
2013-09-11 06:30:00,70.7,69.2,30.09,SSE,165,0.0,0.0,95,0.00,,,0.00,0,Wunderground v.1.15,2013-09-11 10:30:00,
2013-09-11 06:40:00,70.9,69.7,30.10,SSE,165,0.0,0.0,96,0.00,,,0.00,0,Wunderground v.1.15,2013-09-11 10:40:00,
2013-09-11 06:50:00,70.8,69.6,30.10,SSE,165,0.0,0.0,96,0.00,,,0.00,0,Wunderground v.1.15,2013-09-11 10:50:00,
2013-09-11 07:00:00,70.3,69.1,30.10,SSE,165,0.0,0.0,96,0.00,,,0.00,12,Wunderground v.1.15,2013-09-11 11:00:00,
2013-09-11 07:10:00,70.3,69.1,30.10,SSE,165,0.0,0.0,96,0.00,,,0.00,21,Wunderground v.1.15,2013-09-11 11:10:00,
2013-09-11 07:20:00,69.7,68.5,30.10,SSE,165,0.0,0.0,96,0.00,,,0.00,32,Wunderground v.1.15,2013-09-11 11:20:00,
2013-09-11 07:30:00,70.1,68.9,30.10,SSE,165,0.0,0.0,96,0.00,,,0.00,51,Wunderground v.1.15,2013-09-11 11:30:00,
2013-09-11 07:40:00,70.4,69.5,30.10,SSE,165,0.0,0.0,97,0.00,,,0.00,72,Wunderground v.1.15,2013-09-11 11:40:00,
2013-09-11 07:50:00,71.0,70.1,30.10,SSE,165,0.0,0.0,97,0.00,,,0.00,91,Wunderground v.1.15,2013-09-11 11:50:00,
2013-09-11 08:00:00,71.8,70.9,30.11,SSE,165,0.0,0.0,97,0.00,,,0.00,118,Wunderground v.1.15,2013-09-11 12:00:00,
2013-09-11 08:10:00,72.6,71.7,30.11,SSE,165,0.0,0.0,97,0.00,,,0.00,144,Wunderground v.1.15,2013-09-11 12:10:00,
2013-09-11 08:20:00,73.3,72.1,30.11,SSE,165,0.0,0.0,96,0.00,,,0.00,156,Wunderground v.1.15,2013-09-11 12:20:00,
2013-09-11 08:30:00,74.0,72.2,30.11,SSE,165,0.0,0.0,94,0.00,,,0.00,178,Wunderground v.1.15,2013-09-11 12:30:00,
2013-09-11 08:40:00,75.6,73.1,30.11,SSE,165,0.0,0.0,92,0.00,,,0.00,237,Wunderground v.1.15,2013-09-11 12:40:00,
2013-09-11 08:50:00,76.8,73.3,30.11,SSE,165,0.0,0.0,89,0.00,,,0.00,264,Wunderground v.1.15,2013-09-11 12:50:00,
2013-09-11 09:00:00,77.8,73.6,30.11,SSE,165,0.0,0.0,87,0.00,,,0.00,302,Wunderground v.1.15,2013-09-11 13:00:00,
2013-09-11 09:10:00,79.0,74.1,30.11,West,260,0.0,2.0,85,0.00,,,0.00,339,Wunderground v.1.15,2013-09-11 13:10:00,
2013-09-11 09:20:00,79.2,73.9,30.11,WSW,257,1.0,1.0,84,0.00,,,0.00,360,Wunderground v.1.15,2013-09-11 13:20:00,
2013-09-11 09:30:00,80.0,74.0,30.11,West,263,1.0,1.0,82,0.00,,,0.00,392,Wunderground v.1.15,2013-09-11 13:30:00,
2013-09-11 09:40:00,80.7,74.7,30.11,West,263,1.0,1.0,82,0.00,,,0.00,422,Wunderground v.1.15,2013-09-11 13:40:00,
2013-09-11 09:50:00,81.5,74.7,30.11,West,263,0.0,0.0,80,0.00,,,0.00,443,Wunderground v.1.15,2013-09-11 13:50:00,
2013-09-11 10:00:00,81.9,74.7,30.11,West,263,0.0,0.0,79,0.00,,,0.00,445,Wunderground v.1.15,2013-09-11 14:00:00,
2013-09-11 10:10:00,82.8,75.2,30.10,SW,215,0.0,0.0,78,0.00,,,0.00,492,Wunderground v.1.15,2013-09-11 14:10:00,
2013-09-11 10:20:00,83.4,75.0,30.10,East,92,0.0,0.0,76,0.00,,,0.00,522,Wunderground v.1.15,2013-09-11 14:20:00,
2013-09-11 10:30:00,84.2,75.8,30.10,West,260,0.0,0.0,76,0.00,,,0.00,548,Wunderground v.1.15,2013-09-11 14:30:00,
2013-09-11 10:40:00,84.9,75.3,30.10,WSW,256,0.0,1.0,73,0.00,,,0.00,570,Wunderground v.1.15,2013-09-11 14:40:00,
2013-09-11 10:50:00,84.9,75.3,30.09,WSW,252,0.0,0.0,73,0.00,,,0.00,591,Wunderground v.1.15,2013-09-11 14:50:00,
2013-09-11 11:00:00,85.6,75.1,30.09,West,269,0.0,0.0,71,0.00,,,0.00,610,Wunderground v.1.15,2013-09-11 15:00:00,
2013-09-11 11:10:00,86.4,76.3,30.09,East,94,1.0,1.0,72,0.00,,,0.00,629,Wunderground v.1.15,2013-09-11 15:10:00,
2013-09-11 11:20:00,86.5,76.4,30.09,North,350,0.0,0.0,72,0.00,,,0.00,636,Wunderground v.1.15,2013-09-11 15:20:00,
2013-09-11 11:30:00,87.1,76.1,30.09,North,11,0.0,0.0,70,0.00,,,0.00,650,Wunderground v.1.15,2013-09-11 15:30:00,
2013-09-11 11:40:00,87.8,77.6,30.08,SSE,147,0.0,0.0,72,0.00,,,0.00,659,Wunderground v.1.15,2013-09-11 15:40:00,
2013-09-11 11:50:00,88.0,75.7,30.08,WNW,282,1.0,1.0,67,0.00,,,0.00,671,Wunderground v.1.15,2013-09-11 15:50:00,
2013-09-11 12:00:00,88.0,76.5,30.08,ENE,57,0.0,0.0,69,0.00,,,0.00,668,Wunderground v.1.15,2013-09-11 16:00:00,
2013-09-11 12:10:00,88.2,75.9,30.07,WSW,247,0.0,1.0,67,0.00,,,0.00,650,Wunderground v.1.15,2013-09-11 16:10:00,
2013-09-11 12:20:00,88.3,77.3,30.07,ENE,69,0.0,0.0,70,0.00,,,0.00,708,Wunderground v.1.15,2013-09-11 16:20:00,
2013-09-11 12:30:00,87.6,75.7,30.07,ENE,69,0.0,0.0,68,0.00,,,0.00,265,Wunderground v.1.15,2013-09-11 16:30:00,
2013-09-11 12:40:00,88.6,76.2,30.07,ENE,76,1.0,1.0,67,0.00,,,0.00,334,Wunderground v.1.15,2013-09-11 16:40:00,
2013-09-11 12:50:00,88.6,75.3,30.06,NNW,336,0.0,3.0,65,0.00,,,0.00,457,Wunderground v.1.15,2013-09-11 16:50:00,
2013-09-11 13:00:00,88.8,76.9,30.06,East,90,1.0,1.0,68,0.00,,,0.00,308,Wunderground v.1.15,2013-09-11 17:00:00,
2013-09-11 13:10:00,89.2,75.9,30.05,ESE,110,1.0,1.0,65,0.00,,,0.00,288,Wunderground v.1.15,2013-09-11 17:10:00,
2013-09-11 13:20:00,88.4,76.9,30.05,NE,39,1.0,1.0,69,0.00,,,0.00,264,Wunderground v.1.15,2013-09-11 17:20:00,
2013-09-11 13:30:00,89.7,75.9,30.04,SE,134,1.0,5.0,64,0.00,,,0.00,366,Wunderground v.1.15,2013-09-11 17:30:00,
2013-09-11 13:40:00,90.7,76.4,30.03,ESE,111,2.0,2.0,63,0.00,,,0.00,642,Wunderground v.1.15,2013-09-11 17:40:00,
2013-09-11 13:50:00,90.5,75.2,30.03,SSE,159,1.0,1.0,61,0.00,,,0.00,325,Wunderground v.1.15,2013-09-11 17:50:00,
2013-09-11 14:00:00,90.8,76.0,30.02,ESE,107,2.0,4.0,62,0.00,,,0.00,276,Wunderground v.1.15,2013-09-11 18:00:00,
2013-09-11 14:10:00,90.3,75.5,30.02,ENE,78,3.0,3.0,62,0.00,,,0.00,598,Wunderground v.1.15,2013-09-11 18:10:00,
2013-09-11 14:20:00,91.2,74.4,30.02,SSE,161,1.0,1.0,58,0.00,,,0.00,729,Wunderground v.1.15,2013-09-11 18:20:00,
2013-09-11 14:30:00,91.9,75.0,30.01,SSE,163,1.0,1.0,58,0.00,,,0.00,722,Wunderground v.1.15,2013-09-11 18:30:00,
2013-09-11 14:40:00,91.8,75.9,30.01,SE,133,2.0,5.0,60,0.00,,,0.00,682,Wunderground v.1.15,2013-09-11 18:40:00,
2013-09-11 14:50:00,91.8,77.4,30.00,SSE,159,2.0,2.0,63,0.00,,,0.00,733,Wunderground v.1.15,2013-09-11 18:50:00,
2013-09-11 15:00:00,92.3,75.4,30.00,SSE,153,3.0,3.0,58,0.00,,,0.00,668,Wunderground v.1.15,2013-09-11 19:00:00,
2013-09-11 15:10:00,91.8,75.4,29.99,SSE,162,2.0,2.0,59,0.00,,,0.00,308,Wunderground v.1.15,2013-09-11 19:10:00,
2013-09-11 15:20:00,91.2,74.4,29.99,SSE,162,1.0,1.0,58,0.00,,,0.00,158,Wunderground v.1.15,2013-09-11 19:20:00,
2013-09-11 15:30:00,92.1,74.1,29.99,SE,128,2.0,2.0,56,0.00,,,0.00,610,Wunderground v.1.15,2013-09-11 19:30:00,
2013-09-11 15:40:00,92.5,74.0,29.98,SW,223,1.0,1.0,55,0.00,,,0.00,406,Wunderground v.1.15,2013-09-11 19:40:00,
2013-09-11 15:50:00,92.0,74.1,29.97,West,267,2.0,2.0,56,0.00,,,0.00,536,Wunderground v.1.15,2013-09-11 19:50:00,
2013-09-11 16:00:00,92.6,74.6,29.97,SW,229,2.0,2.0,56,0.00,,,0.00,504,Wunderground v.1.15,2013-09-11 20:00:00,
2013-09-11 16:10:00,92.7,73.6,29.97,SSE,161,1.0,1.0,54,0.00,,,0.00,482,Wunderground v.1.15,2013-09-11 20:10:00,
2013-09-11 16:20:00,92.8,73.7,29.97,SW,225,1.0,1.0,54,0.00,,,0.00,469,Wunderground v.1.15,2013-09-11 20:20:00,
2013-09-11 16:30:00,93.3,74.2,29.97,West,261,1.0,2.0,54,0.00,,,0.00,304,Wunderground v.1.15,2013-09-11 20:30:00,
2013-09-11 16:40:00,91.2,73.3,29.97,South,190,2.0,2.0,56,0.00,,,0.00,69,Wunderground v.1.15,2013-09-11 20:40:00,
2013-09-11 16:50:00,90.6,73.3,29.97,SSE,161,0.0,0.0,57,0.00,,,0.00,107,Wunderground v.1.15,2013-09-11 20:50:00,
2013-09-11 17:00:00,90.5,73.7,29.96,SSE,150,1.0,1.0,58,0.00,,,0.00,125,Wunderground v.1.15,2013-09-11 21:00:00,
2013-09-11 17:10:00,91.1,74.8,29.97,SSE,149,0.0,0.0,59,0.00,,,0.00,174,Wunderground v.1.15,2013-09-11 21:10:00,
2013-09-11 17:20:00,90.6,74.3,29.96,South,180,1.0,1.0,59,0.00,,,0.00,107,Wunderground v.1.15,2013-09-11 21:20:00,
2013-09-11 17:30:00,89.9,74.6,29.96,South,175,1.0,1.0,61,0.00,,,0.00,114,Wunderground v.1.15,2013-09-11 21:30:00,
2013-09-11 17:40:00,90.0,75.2,29.97,SE,144,0.0,0.0,62,0.00,,,0.00,142,Wunderground v.1.15,2013-09-11 21:40:00,
2013-09-11 17:50:00,89.6,75.3,29.97,SSE,165,1.0,1.0,63,0.00,,,0.00,77,Wunderground v.1.15,2013-09-11 21:50:00,
2013-09-11 18:00:00,88.6,75.3,29.97,SSE,148,0.0,0.0,65,0.00,,,0.00,54,Wunderground v.1.15,2013-09-11 22:00:00,
2013-09-11 18:10:00,88.0,75.7,29.97,SSE,148,0.0,0.0,67,0.00,,,0.00,47,Wunderground v.1.15,2013-09-11 22:10:00,
2013-09-11 18:20:00,86.4,76.3,29.97,SSE,148,0.0,0.0,72,0.00,,,0.00,40,Wunderground v.1.15,2013-09-11 22:20:00,
2013-09-11 18:30:00,87.0,76.5,29.97,SSE,148,0.0,0.0,71,0.00,,,0.00,25,Wunderground v.1.15,2013-09-11 22:30:00,
2013-09-11 18:40:00,85.6,73.4,29.97,SSE,148,0.0,0.0,67,0.00,,,0.00,16,Wunderground v.1.15,2013-09-11 22:40:00,
2013-09-11 18:50:00,85.0,71.9,29.97,West,268,1.0,1.0,65,0.00,,,0.00,11,Wunderground v.1.15,2013-09-11 22:50:00,
2013-09-11 19:00:00,84.4,72.2,29.98,West,269,0.0,0.0,67,0.00,,,0.00,16,Wunderground v.1.15,2013-09-11 23:00:00,
2013-09-11 19:10:00,84.0,71.9,29.97,NNW,329,0.0,0.0,67,0.00,,,0.00,11,Wunderground v.1.15,2013-09-11 23:10:00,
2013-09-11 19:20:00,83.2,71.5,29.98,NNW,329,0.0,0.0,68,0.00,,,0.00,0,Wunderground v.1.15,2013-09-11 23:20:00,
2013-09-11 19:30:00,81.6,71.7,29.98,NNW,329,0.0,0.0,72,0.00,,,0.00,0,Wunderground v.1.15,2013-09-11 23:30:00,
2013-09-11 19:40:00,80.2,71.2,29.98,NNW,329,0.0,0.0,74,0.00,,,0.00,0,Wunderground v.1.15,2013-09-11 23:40:00,
2013-09-11 19:50:00,79.4,71.6,29.98,NNW,329,0.0,0.0,77,0.00,,,0.00,0,Wunderground v.1.15,2013-09-11 23:50:00,
2013-09-11 20:00:00,78.7,72.0,29.97,NNW,329,0.0,0.0,80,0.00,,,0.00,0,Wunderground v.1.15,2013-09-12 00:00:00,
2013-09-11 20:10:00,78.0,71.7,29.98,NNW,329,0.0,0.0,81,0.00,,,0.00,0,Wunderground v.1.15,2013-09-12 00:10:00,
2013-09-11 20:20:00,78.0,72.1,29.98,NNW,329,0.0,0.0,82,0.00,,,0.00,0,Wunderground v.1.15,2013-09-12 00:20:00,
2013-09-11 20:30:00,77.6,72.0,29.98,NNW,329,0.0,0.0,83,0.00,,,0.00,0,Wunderground v.1.15,2013-09-12 00:30:00,
2013-09-11 20:40:00,76.4,71.9,29.98,NNW,329,0.0,0.0,86,0.00,,,0.00,0,Wunderground v.1.15,2013-09-12 00:40:00,
2013-09-11 20:50:00,75.8,70.6,29.99,NNW,329,0.0,0.0,84,0.00,,,0.00,0,Wunderground v.1.15,2013-09-12 00:50:00,
2013-09-11 21:00:00,75.8,69.9,29.98,NNW,329,0.0,0.0,82,0.00,,,0.00,0,Wunderground v.1.15,2013-09-12 01:00:00,
2013-09-11 21:10:00,76.3,69.7,29.99,NNW,329,0.0,0.0,80,0.00,,,0.00,0,Wunderground v.1.15,2013-09-12 01:10:00,
2013-09-11 21:20:00,75.7,69.8,29.99,NNW,329,0.0,0.0,82,0.00,,,0.00,0,Wunderground v.1.15,2013-09-12 01:20:00,
2013-09-11 21:30:00,76.3,70.0,29.98,NNW,329,0.0,0.0,81,0.00,,,0.00,0,Wunderground v.1.15,2013-09-12 01:30:00,
2013-09-11 21:40:00,76.3,70.0,29.97,NNW,329,0.0,0.0,81,0.00,,,0.00,0,Wunderground v.1.15,2013-09-12 01:40:00,
2013-09-11 21:50:00,76.0,70.1,29.98,NNW,329,0.0,0.0,82,0.00,,,0.00,0,Wunderground v.1.15,2013-09-12 01:50:00,
2013-09-11 22:00:00,75.0,70.2,29.98,NNW,329,0.0,0.0,85,0.00,,,0.00,0,Wunderground v.1.15,2013-09-12 02:00:00,
2013-09-11 22:10:00,73.8,69.7,29.98,NNW,329,0.0,0.0,87,0.00,,,0.00,0,Wunderground v.1.15,2013-09-12 02:10:00,
2013-09-11 22:20:00,73.6,69.5,29.98,NNW,329,0.0,0.0,87,0.00,,,0.00,0,Wunderground v.1.15,2013-09-12 02:20:00,
2013-09-11 22:30:00,74.0,70.2,29.98,NNW,329,0.0,0.0,88,0.00,,,0.00,0,Wunderground v.1.15,2013-09-12 02:30:00,
2013-09-11 22:40:00,73.5,70.1,29.98,NNW,329,0.0,0.0,89,0.00,,,0.00,0,Wunderground v.1.15,2013-09-12 02:40:00,
2013-09-11 22:50:00,73.0,69.9,29.98,NNW,329,0.0,0.0,90,0.00,,,0.00,0,Wunderground v.1.15,2013-09-12 02:50:00,
2013-09-11 23:00:00,73.4,70.6,29.99,NNW,329,0.0,0.0,91,0.00,,,0.00,0,Wunderground v.1.15,2013-09-12 03:00:00,
2013-09-11 23:10:00,74.3,71.2,29.98,NNW,329,0.0,0.0,90,0.00,,,0.00,0,Wunderground v.1.15,2013-09-12 03:10:00,
2013-09-11 23:20:00,73.3,70.2,29.98,NNW,329,0.0,0.0,90,0.00,,,0.00,0,Wunderground v.1.15,2013-09-12 03:20:00,
2013-09-11 23:30:00,72.8,70.0,29.98,NNW,329,0.0,0.0,91,0.00,,,0.00,0,Wunderground v.1.15,2013-09-12 03:30:00,
2013-09-11 23:40:00,73.0,70.5,29.97,NNW,329,0.0,0.0,92,0.00,,,0.00,0,Wunderground v.1.15,2013-09-12 03:40:00,
2013-09-11 23:50:00,73.1,70.6,29.97,NNW,329,0.0,0.0,92,0.00,,,0.00,0,Wunderground v.1.15,2013-09-12 03:50:00,